Time;durP1;ratioP1;P1;durP2;ratioP2;P2;SDS_P1;SDS_P2;PMS_P1;PMS_P2;Temp;Humidity;BMP_temperature;BMP_pressure;BME280_temperature;BME280_humidity;BME280_pressure;Samples;Min_cycle;Max_cycle;Signal;HPM_P1;HPM_P2
2021/04/09 00:00:24;;;;;;;18.95;14.23;;;7.50;91.60;;;;;;5060514;28;20048;-86
2021/04/09 00:02:51;;;;;;;22.02;14.20;;;6.70;91.30;;;;;;5095324;28;20035;-86
2021/04/09 00:05:20;;;;;;;18.67;14.13;;;7.20;91.40;;;;;;5095180;28;20083;-86
2021/04/09 00:07:49;;;;;;;20.00;14.75;;;6.70;91.30;;;;;;5093380;28;20055;-82
2021/04/09 00:10:17;;;;;;;19.17;13.82;;;6.80;91.50;;;;;;5072964;28;20404;-85
2021/04/09 00:12:44;;;;;;;18.85;13.70;;;6.60;91.30;;;;;;5085312;28;20039;-85
2021/04/09 00:15:11;;;;;;;18.40;14.43;;;6.40;91.30;;;;;;5073986;28;20127;-85
2021/04/09 00:17:44;;;;;;;21.25;14.50;;;6.60;91.50;;;;;;5059457;28;20037;-85
2021/04/09 00:20:21;;;;;;;22.58;14.38;;;7.10;91.80;;;;;;5071609;28;20036;-85
2021/04/09 00:22:48;;;;;;;19.60;13.55;;;6.70;91.60;;;;;;5041473;28;20040;-80
2021/04/09 00:25:16;;;;;;;20.58;13.70;;;7.60;91.70;;;;;;5049000;28;20468;-80
2021/04/09 00:27:42;;;;;;;20.38;13.20;;;6.60;91.50;;;;;;5075681;28;20036;-80
2021/04/09 00:30:11;;;;;;;21.65;14.32;;;7.50;91.70;;;;;;5081103;28;20115;-80
2021/04/09 00:32:37;;;;;;;20.17;13.88;;;6.60;91.50;;;;;;5083676;28;20032;-79
2021/04/09 00:35:05;;;;;;;20.67;14.50;;;6.60;91.50;;;;;;5065019;28;20036;-79
2021/04/09 00:37:31;;;;;;;20.00;13.88;;;6.60;91.60;;;;;;5059602;28;20032;-79
2021/04/09 00:39:57;;;;;;;18.60;13.95;;;6.60;91.60;;;;;;5056793;28;20044;-79
2021/04/09 00:42:23;;;;;;;20.23;13.82;;;6.70;91.70;;;;;;5061185;28;20052;-79
2021/04/09 00:44:49;;;;;;;20.92;13.23;;;6.60;91.60;;;;;;5063679;28;20170;-81
2021/04/09 00:47:18;;;;;;;20.00;13.30;;;6.60;91.80;;;;;;5096829;28;20047;-82
2021/04/09 00:49:46;;;;;;;21.90;13.55;;;6.60;91.70;;;;;;5060638;28;20104;-84
2021/04/09 00:52:15;;;;;;;23.77;13.43;;;6.80;91.80;;;;;;5073487;28;20122;-82
2021/04/09 00:54:42;;;;;;;25.40;13.32;;;6.60;91.70;;;;;;5087732;28;20032;-81
2021/04/09 00:57:08;;;;;;;20.58;12.70;;;6.60;92.00;;;;;;5088171;28;20044;-82
2021/04/09 00:59:35;;;;;;;17.88;12.15;;;6.60;91.80;;;;;;5094445;28;20040;-82
2021/04/09 01:02:02;;;;;;;23.63;12.40;;;6.60;91.80;;;;;;5064882;28;20036;-82
2021/04/09 01:04:31;;;;;;;17.90;12.27;;;6.60;91.90;;;;;;5074067;28;20401;-82
2021/04/09 01:06:57;;;;;;;24.05;13.02;;;6.60;91.90;;;;;;5075366;28;20495;-82
2021/04/09 01:09:25;;;;;;;19.90;12.32;;;6.60;92.20;;;;;;5083288;28;20040;-82
2021/04/09 01:11:54;;;;;;;27.27;12.18;;;7.20;92.10;;;;;;5069325;28;20040;-82
2021/04/09 01:14:20;;;;;;;23.63;12.48;;;6.60;92.00;;;;;;5088826;28;20039;-82
2021/04/09 01:16:52;;;;;;;17.63;11.70;;;6.60;92.10;;;;;;5077514;28;20065;-82
2021/04/09 01:19:56;;;;;;;19.40;11.52;;;6.60;92.10;;;;;;5077931;28;20064;-82
2021/04/09 01:22:26;;;;;;;18.75;11.73;;;6.60;92.10;;;;;;5061142;28;20093;-82
2021/04/09 01:25:01;;;;;;;19.23;11.95;;;6.60;92.20;;;;;;5069027;28;20036;-82
2021/04/09 01:28:04;;;;;;;15.73;10.90;;;6.60;92.20;;;;;;5072055;28;20055;-75
2021/04/09 01:30:55;;;;;;;18.30;11.40;;;6.70;92.20;;;;;;5093648;28;20388;-76
2021/04/09 01:33:47;;;;;;;17.88;12.27;;;6.70;92.20;;;;;;5073237;28;20036;-75
2021/04/09 01:36:17;;;;;;;20.88;11.68;;;6.70;92.30;;;;;;5093407;28;20046;-75
2021/04/09 01:38:56;;;;;;;17.52;11.35;;;6.70;92.30;;;;;;5093575;28;20043;-72
2021/04/09 01:41:25;;;;;;;18.95;11.35;;;6.70;92.30;;;;;;5065781;28;20040;-72
2021/04/09 01:43:53;;;;;;;17.70;12.20;;;6.70;92.40;;;;;;5082057;28;20115;-72
2021/04/09 01:46:19;;;;;;;19.33;11.80;;;6.70;92.40;;;;;;5087160;28;20187;-72
2021/04/09 01:48:46;;;;;;;19.08;12.13;;;6.80;92.50;;;;;;5084048;28;20036;-72
2021/04/09 01:51:19;;;;;;;21.90;12.10;;;6.70;92.50;;;;;;5083251;28;20506;-72
2021/04/09 01:53:47;;;;;;;19.58;11.75;;;6.70;92.50;;;;;;5080767;28;20127;-72
2021/04/09 01:56:16;;;;;;;20.63;12.57;;;6.70;92.60;;;;;;5072696;28;20044;-72
2021/04/09 01:58:43;;;;;;;19.58;12.27;;;6.70;92.70;;;;;;5084759;28;20067;-72
2021/04/09 02:01:12;;;;;;;16.88;12.80;;;6.70;92.70;;;;;;5087042;28;20032;-72
2021/04/09 02:03:39;;;;;;;19.38;12.63;;;6.70;92.80;;;;;;5072908;28;20449;-72
2021/04/09 02:06:06;;;;;;;22.35;12.82;;;6.70;92.90;;;;;;5065537;28;20048;-72
2021/04/09 02:08:34;;;;;;;23.83;11.93;;;6.70;92.90;;;;;;5087288;28;20495;-72
2021/04/09 02:11:00;;;;;;;18.52;12.07;;;6.70;92.80;;;;;;5072773;28;20036;-72
2021/04/09 02:13:28;;;;;;;20.80;12.57;;;6.60;92.90;;;;;;5084466;28;20039;-73
2021/04/09 02:15:56;;;;;;;20.70;12.90;;;6.60;93.00;;;;;;5090412;28;20048;-73
2021/04/09 02:18:26;;;;;;;21.15;12.57;;;6.80;93.10;;;;;;5077609;28;20040;-73
2021/04/09 02:20:53;;;;;;;19.92;12.73;;;6.70;93.20;;;;;;5075713;28;20415;-73
2021/04/09 02:23:20;;;;;;;20.98;12.60;;;6.60;93.20;;;;;;5092088;28;20108;-73
2021/04/09 02:25:49;;;;;;;19.58;13.10;;;6.60;93.20;;;;;;5091798;28;20153;-75
2021/04/09 02:28:16;;;;;;;19.83;12.30;;;6.60;93.60;;;;;;5080351;28;20109;-75
2021/04/09 02:30:42;;;;;;;19.83;13.38;;;6.60;93.30;;;;;;5085849;28;20036;-76
2021/04/09 02:33:08;;;;;;;24.55;13.23;;;6.60;93.40;;;;;;5072645;28;20040;-76
2021/04/09 02:35:34;;;;;;;18.83;12.77;;;6.60;93.40;;;;;;5066994;28;20085;-76
2021/04/09 02:38:01;;;;;;;22.60;12.95;;;6.60;93.40;;;;;;5073561;28;20036;-75
2021/04/09 02:40:34;;;;;;;22.98;13.32;;;6.70;93.50;;;;;;5092161;28;20546;-75
2021/04/09 02:43:01;;;;;;;25.50;12.88;;;7.30;93.70;;;;;;5067326;28;20126;-76
2021/04/09 02:45:27;;;;;;;20.98;13.70;;;6.70;93.60;;;;;;5087775;28;20032;-75
2021/04/09 02:48:00;;;;;;;20.42;13.65;;;6.70;93.50;;;;;;5058024;28;20109;-76
2021/04/09 02:50:46;;;;;;;25.17;13.57;;;6.70;93.60;;;;;;5074854;28;20044;-75
2021/04/09 02:53:33;;;;;;;24.92;14.88;;;6.60;93.60;;;;;;5092500;28;20123;-76
2021/04/09 02:56:03;;;;;;;23.77;14.25;;;6.60;93.70;;;;;;5090364;28;20062;-75
2021/04/09 02:58:31;;;;;;;22.58;13.93;;;6.60;93.80;;;;;;5092307;28;20052;-75
2021/04/09 03:00:57;;;;;;;20.55;14.15;;;6.60;93.80;;;;;;5092232;28;20036;-75
2021/04/09 03:03:28;;;;;;;26.65;15.10;;;6.60;93.80;;;;;;5091842;28;20082;-75
2021/04/09 03:05:55;;;;;;;22.70;14.15;;;7.00;94.00;;;;;;5073935;28;20376;-75
2021/04/09 03:08:22;;;;;;;21.98;13.75;;;6.60;94.00;;;;;;5091788;28;20039;-74
2021/04/09 03:10:48;;;;;;;23.35;14.60;;;6.70;94.00;;;;;;5092298;28;20081;-75
2021/04/09 03:13:14;;;;;;;22.73;15.05;;;6.60;94.00;;;;;;5074051;28;20032;-75
2021/04/09 03:15:59;;;;;;;22.42;14.45;;;6.60;93.90;;;;;;5091778;28;20056;-75
2021/04/09 03:18:29;;;;;;;23.70;14.73;;;6.60;94.40;;;;;;5092166;28;20032;-75
2021/04/09 03:20:55;;;;;;;21.13;15.25;;;6.60;94.10;;;;;;5091788;28;20048;-75
2021/04/09 03:23:21;;;;;;;22.75;14.60;;;6.60;94.10;;;;;;5091800;28;20111;-75
2021/04/09 03:25:47;;;;;;;24.65;14.98;;;6.60;94.20;;;;;;5091588;28;20455;-75
2021/04/09 03:28:14;;;;;;;22.75;15.45;;;6.60;94.20;;;;;;5091827;28;20131;-75
2021/04/09 03:30:40;;;;;;;22.48;14.82;;;6.60;94.30;;;;;;5092313;28;20039;-75
2021/04/09 03:33:06;;;;;;;20.50;14.77;;;6.60;94.40;;;;;;5092049;28;20490;-75
2021/04/09 03:35:32;;;;;;;23.27;15.27;;;6.60;94.40;;;;;;5091735;28;20112;-73
2021/04/09 03:37:58;;;;;;;22.95;15.15;;;6.60;94.50;;;;;;5084545;28;20044;-73
2021/04/09 03:40:24;;;;;;;24.60;15.55;;;6.50;94.50;;;;;;5091895;28;20036;-73
2021/04/09 03:42:49;;;;;;;24.42;15.35;;;6.50;94.50;;;;;;5092276;28;20048;-73
2021/04/09 03:45:15;;;;;;;20.83;14.98;;;6.50;94.60;;;;;;5095175;28;20036;-73
2021/04/09 03:47:41;;;;;;;21.90;15.50;;;6.50;94.70;;;;;;5077395;28;20093;-73
2021/04/09 03:50:08;;;;;;;23.88;15.93;;;6.40;94.70;;;;;;5095321;28;20032;-72
2021/04/09 03:52:37;;;;;;;22.23;15.77;;;6.40;94.80;;;;;;5077430;28;20040;-72
2021/04/09 03:55:04;;;;;;;25.83;15.85;;;6.40;94.80;;;;;;5076863;28;20043;-72
2021/04/09 03:57:30;;;;;;;25.92;15.73;;;6.40;94.80;;;;;;5095399;28;20032;-72
2021/04/09 03:59:55;;;;;;;21.73;16.65;;;6.30;94.80;;;;;;5094848;28;20039;-74
2021/04/09 04:02:26;;;;;;;26.63;16.42;;;6.30;94.90;;;;;;5077723;28;20040;-73
2021/04/09 04:04:51;;;;;;;23.98;16.42;;;6.30;95.00;;;;;;5094489;28;20094;-73
2021/04/09 04:07:17;;;;;;;28.02;17.02;;;6.30;95.00;;;;;;5077004;28;20442;-73
2021/04/09 04:09:43;;;;;;;27.85;17.70;;;6.30;95.00;;;;;;5095029;28;20070;-73
2021/04/09 04:12:09;;;;;;;25.02;16.92;;;6.30;95.00;;;;;;5076801;28;20024;-73
2021/04/09 04:14:35;;;;;;;24.05;16.83;;;6.30;95.20;;;;;;5077071;28;20046;-73
2021/04/09 04:17:01;;;;;;;26.42;17.08;;;6.30;95.30;;;;;;5075413;28;20051;-73
2021/04/09 04:19:27;;;;;;;25.45;18.15;;;6.30;95.30;;;;;;5076664;28;20408;-73
2021/04/09 04:21:53;;;;;;;26.30;18.25;;;6.60;95.50;;;;;;5094654;28;20040;-73
2021/04/09 04:24:19;;;;;;;24.67;17.00;;;6.30;95.50;;;;;;5094475;28;20043;-73
2021/04/09 04:26:45;;;;;;;27.10;17.35;;;6.30;95.50;;;;;;5040446;28;20497;-76
2021/04/09 04:29:11;;;;;;;27.80;16.95;;;6.30;95.50;;;;;;5094739;28;20109;-76
2021/04/09 04:31:37;;;;;;;27.08;17.88;;;6.30;95.60;;;;;;5094600;28;20092;-76
2021/04/09 04:34:03;;;;;;;25.08;18.02;;;6.30;95.70;;;;;;5094260;28;20028;-76
2021/04/09 04:36:29;;;;;;;24.83;17.00;;;6.30;95.80;;;;;;5094828;28;20399;-76
2021/04/09 04:38:55;;;;;;;24.15;17.90;;;6.30;95.80;;;;;;5094443;28;20039;-76
2021/04/09 04:41:20;;;;;;;26.00;18.05;;;6.30;95.90;;;;;;5094834;28;20032;-77
2021/04/09 04:43:46;;;;;;;26.05;18.83;;;6.30;96.00;;;;;;5076453;28;20101;-76
2021/04/09 04:46:12;;;;;;;27.88;18.88;;;6.30;96.10;;;;;;5076619;28;20441;-76
2021/04/09 04:48:38;;;;;;;28.85;18.63;;;6.30;96.40;;;;;;5094198;28;20391;-72
2021/04/09 04:51:05;;;;;;;28.75;17.95;;;5.90;96.00;;;;;;5093894;28;20039;-72
2021/04/09 04:53:31;;;;;;;29.48;18.38;;;6.30;96.20;;;;;;5093768;28;20507;-72
2021/04/09 04:55:57;;;;;;;26.25;18.35;;;6.30;96.20;;;;;;5094025;28;20036;-72
2021/04/09 04:58:23;;;;;;;27.23;17.42;;;6.20;96.30;;;;;;5076226;28;20028;-72
2021/04/09 05:00:49;;;;;;;25.58;17.73;;;6.30;96.30;;;;;;5094135;28;20040;-72
2021/04/09 05:03:15;;;;;;;27.95;18.85;;;6.30;96.30;;;;;;5076238;28;20048;-72
2021/04/09 05:05:41;;;;;;;29.05;17.95;;;6.30;96.40;;;;;;5093737;28;20032;-73
2021/04/09 05:08:07;;;;;;;28.63;17.00;;;6.30;96.50;;;;;;5093637;28;20638;-73
2021/04/09 05:10:33;;;;;;;26.55;18.08;;;6.30;96.60;;;;;;5059429;28;20108;-72
2021/04/09 05:12:59;;;;;;;24.42;17.23;;;6.30;96.60;;;;;;5091967;28;20036;-72
2021/04/09 05:15:25;;;;;;;36.15;18.50;;;6.80;96.80;;;;;;5089071;28;20052;-72
2021/04/09 05:17:51;;;;;;;30.10;17.90;;;6.30;96.70;;;;;;5083763;28;20495;-72
2021/04/09 05:20:17;;;;;;;27.88;17.35;;;6.30;96.90;;;;;;5090724;28;20074;-73
2021/04/09 05:22:43;;;;;;;28.63;18.08;;;6.30;96.80;;;;;;5075767;28;20036;-73
2021/04/09 05:25:09;;;;;;;24.95;17.08;;;6.20;96.90;;;;;;5093776;28;20040;-76
2021/04/09 05:27:35;;;;;;;29.38;17.58;;;6.20;97.00;;;;;;5093607;28;20028;-72
2021/04/09 05:30:01;;;;;;;32.13;17.38;;;6.20;97.10;;;;;;5093782;28;20059;-73
2021/04/09 05:32:27;;;;;;;28.50;18.23;;;6.20;97.00;;;;;;5059144;28;20036;-72
2021/04/09 05:34:54;;;;;;;28.95;17.67;;;6.20;97.10;;;;;;5066984;28;20032;-72
2021/04/09 05:37:20;;;;;;;30.23;17.25;;;6.20;97.20;;;;;;5093599;28;20032;-72
2021/04/09 05:39:46;;;;;;;32.35;16.73;;;6.20;97.20;;;;;;5093500;28;20034;-83
2021/04/09 05:42:14;;;;;;;35.28;17.08;;;6.20;97.30;;;;;;5075797;28;20479;-76
2021/04/09 05:44:43;;;;;;;24.30;16.92;;;6.20;97.40;;;;;;5093741;28;20123;-83
2021/04/09 05:47:10;;;;;;;23.05;17.38;;;6.20;97.40;;;;;;5055422;28;20037;-76
2021/04/09 05:49:36;;;;;;;29.10;17.15;;;6.20;97.50;;;;;;5089846;28;20032;-78
2021/04/09 05:52:06;;;;;;;24.45;15.98;;;6.20;97.60;;;;;;5074789;28;20051;-78
2021/04/09 05:54:33;;;;;;;29.63;16.83;;;6.30;97.60;;;;;;5068950;28;20403;-73
2021/04/09 05:56:59;;;;;;;30.58;16.42;;;6.30;97.60;;;;;;5092353;28;20039;-73
2021/04/09 05:59:26;;;;;;;30.58;15.73;;;6.30;97.70;;;;;;5074057;28;20040;-73
2021/04/09 06:01:52;;;;;;;23.85;16.83;;;6.40;97.70;;;;;;5091993;28;20113;-73
2021/04/09 06:04:18;;;;;;;27.08;16.00;;;6.80;97.70;;;;;;5082645;28;20057;-73
2021/04/09 06:06:44;;;;;;;25.13;15.27;;;6.50;97.80;;;;;;5079226;28;20097;-72
2021/04/09 06:09:10;;;;;;;24.60;16.15;;;6.50;97.90;;;;;;5082253;28;20055;-72
2021/04/09 06:11:36;;;;;;;31.75;15.43;;;6.60;97.90;;;;;;5091302;28;20047;-72
2021/04/09 06:14:02;;;;;;;27.98;15.75;;;6.70;97.70;;;;;;5092828;28;20050;-73
2021/04/09 06:16:28;;;;;;;23.92;15.10;;;6.70;97.80;;;;;;5066734;28;20048;-73
2021/04/09 06:18:56;;;;;;;27.02;15.63;;;6.80;97.70;;;;;;5072445;28;20040;-72
2021/04/09 06:21:24;;;;;;;28.30;15.35;;;6.80;97.70;;;;;;5072465;28;20032;-72
2021/04/09 06:23:51;;;;;;;27.50;14.98;;;6.80;97.60;;;;;;5072381;28;20041;-72
2021/04/09 06:26:16;;;;;;;25.05;14.27;;;6.80;97.60;;;;;;5071667;28;20047;-74
2021/04/09 06:28:42;;;;;;;27.70;13.60;;;6.80;97.70;;;;;;5065072;28;20037;-73
2021/04/09 06:31:08;;;;;;;24.33;13.80;;;6.80;97.70;;;;;;5066558;28;20053;-73
2021/04/09 06:33:34;;;;;;;24.52;14.15;;;6.80;97.80;;;;;;5066746;28;20037;-73
2021/04/09 06:36:00;;;;;;;27.17;14.18;;;6.80;97.80;;;;;;5065762;28;20040;-73
2021/04/09 06:38:26;;;;;;;24.85;13.90;;;6.80;97.90;;;;;;5067306;28;20032;-73
2021/04/09 06:40:51;;;;;;;25.05;14.00;;;6.90;97.90;;;;;;5066342;28;20124;-73
2021/04/09 06:43:19;;;;;;;22.63;13.50;;;7.00;97.90;;;;;;5067667;28;20033;-73
2021/04/09 06:45:45;;;;;;;24.40;13.38;;;7.00;97.90;;;;;;5049545;28;20033;-73
2021/04/09 06:48:11;;;;;;;25.00;14.02;;;7.00;97.90;;;;;;5066254;28;20043;-73
2021/04/09 06:50:37;;;;;;;28.50;13.88;;;7.00;97.90;;;;;;5067537;28;20124;-73
2021/04/09 06:53:05;;;;;;;19.77;13.07;;;7.10;97.90;;;;;;5067911;28;20055;-73
2021/04/09 06:55:31;;;;;;;22.73;13.57;;;7.10;97.80;;;;;;5066832;28;20060;-73
2021/04/09 06:58:00;;;;;;;25.65;13.45;;;7.10;97.90;;;;;;5066078;28;20115;-73
2021/04/09 07:00:31;;;;;;;24.23;12.93;;;7.20;97.90;;;;;;5066714;28;21094;-74
2021/04/09 07:02:57;;;;;;;19.50;13.07;;;7.20;97.80;;;;;;5067119;28;20048;-73
2021/04/09 07:05:26;;;;;;;24.88;13.88;;;7.20;97.80;;;;;;5066205;28;20041;-73
2021/04/09 07:07:52;;;;;;;24.10;13.13;;;7.70;98.00;;;;;;5049071;28;20049;-73
2021/04/09 07:10:18;;;;;;;22.95;12.20;;;7.30;97.90;;;;;;5048609;28;20060;-73
2021/04/09 07:12:45;;;;;;;28.08;13.43;;;7.40;97.90;;;;;;5048490;28;20084;-72
2021/04/09 07:15:17;;;;;;;20.30;11.63;;;7.50;98.00;;;;;;5067915;28;20044;-73
2021/04/09 07:17:48;;;;;;;24.05;12.23;;;7.60;98.10;;;;;;5051647;28;20055;-72
2021/04/09 07:20:23;;;;;;;24.85;11.93;;;7.60;98.00;;;;;;5070818;28;20041;-75
2021/04/09 07:22:54;;;;;;;21.63;11.32;;;7.70;98.00;;;;;;5054020;28;20481;-76
2021/04/09 07:25:25;;;;;;;28.95;12.55;;;7.70;98.00;;;;;;5053334;28;20066;-76
2021/04/09 07:28:13;;;;;;;22.45;11.13;;;7.70;98.00;;;;;;5070334;28;20040;-76
2021/04/09 07:30:41;;;;;;;26.83;12.48;;;7.70;98.10;;;;;;5053853;28;20119;-76
2021/04/09 07:33:09;;;;;;;20.65;11.95;;;7.70;98.10;;;;;;5071075;28;20036;-76
2021/04/09 07:35:50;;;;;;;25.98;12.02;;;7.80;98.20;;;;;;5053040;28;20056;-76
2021/04/09 07:38:18;;;;;;;21.85;11.10;;;7.80;98.20;;;;;;5071229;28;20076;-76
2021/04/09 07:40:54;;;;;;;23.27;11.38;;;7.80;98.20;;;;;;5071589;28;20396;-77
2021/04/09 07:43:20;;;;;;;26.05;11.23;;;7.60;98.20;;;;;;5068966;28;20040;-82
2021/04/09 07:45:46;;;;;;;30.83;10.95;;;7.80;98.30;;;;;;5053116;28;20048;-77
2021/04/09 07:48:16;;;;;;;23.30;11.02;;;7.80;98.30;;;;;;5054055;28;20074;-77
2021/04/09 07:50:45;;;;;;;25.88;10.93;;;7.90;98.40;;;;;;5071647;28;20029;-77
2021/04/09 07:53:17;;;;;;;27.38;11.73;;;7.90;98.40;;;;;;5052170;28;20032;-77
2021/04/09 07:55:46;;;;;;;23.77;11.63;;;7.90;98.50;;;;;;5069488;28;20127;-78
2021/04/09 07:58:25;;;;;;;16.25;9.80;;;7.90;98.50;;;;;;5052459;28;20488;-77
2021/04/09 08:00:52;;;;;;;26.50;10.18;;;8.10;98.60;;;;;;5051139;28;20148;-78
2021/04/09 08:03:38;;;;;;;20.77;9.95;;;8.30;98.50;;;;;;5071312;28;20032;-78
2021/04/09 08:06:07;;;;;;;;;;;8.00;98.60;;;;;;5070811;28;20036;-78
2021/04/09 08:08:33;;;;;;;24.63;8.55;;;8.00;98.80;;;;;;5070442;28;20509;-78
2021/04/09 08:11:36;;;;;;;20.38;7.90;;;8.10;98.60;;;;;;5071035;28;20452;-77
2021/04/09 08:14:24;;;;;;;22.00;7.57;;;8.10;98.60;;;;;;5018650;28;20068;-77
2021/04/09 08:16:51;;;;;;;14.02;7.07;;;8.20;98.50;;;;;;5051518;28;20051;-77
2021/04/09 08:19:24;;;;;;;22.85;7.32;;;8.10;98.60;;;;;;5071056;28;20056;-77
2021/04/09 08:21:55;;;;;;;16.27;6.68;;;8.10;98.50;;;;;;5068637;28;20055;-76
2021/04/09 08:24:32;;;;;;;32.13;7.65;;;8.20;98.60;;;;;;5070304;28;20040;-77
2021/04/09 08:26:59;;;;;;;19.23;6.40;;;8.20;98.80;;;;;;5059859;28;20503;-78
2021/04/09 08:29:26;;;;;;;20.42;7.30;;;8.30;98.60;;;;;;5067155;28;20459;-83
2021/04/09 08:31:54;;;;;;;18.80;6.82;;;8.30;98.50;;;;;;5049000;28;20535;-83
2021/04/09 08:34:29;;;;;;;20.67;7.20;;;8.60;98.50;;;;;;5067518;28;20064;-83
2021/04/09 08:36:58;;;;;;;;;;;8.40;98.40;;;;;;5070063;28;20039;-83
2021/04/09 08:39:25;;;;;;;20.00;6.88;;;8.60;98.50;;;;;;5067753;28;19924;-83
2021/04/09 08:41:58;;;;;;;21.15;6.80;;;8.40;98.40;;;;;;5051881;28;20365;-82
2021/04/09 08:44:25;;;;;;;24.63;7.82;;;8.40;98.40;;;;;;5067947;28;20032;-83
2021/04/09 08:46:54;;;;;;;25.67;7.10;;;8.40;98.40;;;;;;5051438;28;20036;-83
2021/04/09 08:49:26;;;;;;;19.20;6.95;;;8.40;98.50;;;;;;5048746;28;20108;-83
2021/04/09 08:51:52;;;;;;;20.50;7.15;;;8.40;98.60;;;;;;5068603;28;20037;-82
2021/04/09 08:54:30;;;;;;;22.35;7.70;;;8.40;98.60;;;;;;5050165;28;20040;-82
2021/04/09 08:57:01;;;;;;;17.83;6.45;;;8.40;98.70;;;;;;5033829;28;20126;-83
2021/04/09 08:59:48;;;;;;;17.02;6.75;;;8.50;98.60;;;;;;5050988;28;20048;-83
2021/04/09 09:02:26;;;;;;;19.63;6.65;;;8.50;98.50;;;;;;5066574;28;20549;-77
2021/04/09 09:05:07;;;;;;;17.77;6.53;;;8.50;98.50;;;;;;5067249;28;20104;-76
2021/04/09 09:07:52;;;;;;;17.30;6.82;;;8.60;98.50;;;;;;5074044;28;20037;-76
2021/04/09 09:10:30;;;;;;;24.13;6.53;;;8.60;98.30;;;;;;5073375;28;20542;-77
2021/04/09 09:13:05;;;;;;;21.25;6.13;;;8.70;98.50;;;;;;5073691;28;20041;-77
2021/04/09 09:15:43;;;;;;;20.55;6.10;;;8.70;98.20;;;;;;5060767;28;20040;-77
2021/04/09 09:18:24;;;;;;;16.33;6.35;;;8.70;98.20;;;;;;5073638;28;20083;-77
2021/04/09 09:21:20;;;;;;;24.45;6.30;;;8.80;98.20;;;;;;5063090;28;20060;-83
2021/04/09 09:23:56;;;;;;;21.97;6.20;;;8.80;98.10;;;;;;5066040;28;20497;-76
2021/04/09 09:26:35;;;;;;;18.42;6.80;;;8.70;98.10;;;;;;5068409;28;20294;-76
2021/04/09 09:29:25;;;;;;;18.83;5.80;;;8.70;98.10;;;;;;5068632;28;20028;-76
2021/04/09 09:31:56;;;;;;;16.63;6.20;;;8.70;99.00;;;;;;5067798;28;20029;-76
2021/04/09 09:34:24;;;;;;;20.80;6.70;;;8.70;98.90;;;;;;5069031;28;20040;-76
2021/04/09 09:37:19;;;;;;;14.95;5.97;;;8.70;99.20;;;;;;5069199;28;20914;-76
2021/04/09 09:39:49;;;;;;;18.23;5.72;;;8.60;99.90;;;;;;5050452;28;20051;-76
2021/04/09 09:42:27;;;;;;;16.15;5.72;;;8.60;99.90;;;;;;5068095;28;20090;-77
2021/04/09 09:44:54;;;;;;;15.68;6.05;;;8.80;99.90;;;;;;5030689;28;20072;-82
2021/04/09 09:47:31;;;;;;;15.77;5.57;;;8.60;99.90;;;;;;5069434;28;20036;-78
2021/04/09 09:50:08;;;;;;;20.48;6.55;;;8.70;99.90;;;;;;5043488;28;20122;-74
2021/04/09 09:52:53;;;;;;;19.95;6.65;;;8.80;99.90;;;;;;5072617;28;20086;-75
2021/04/09 09:55:48;;;;;;;25.98;6.85;;;8.80;99.70;;;;;;5066761;28;20369;-71
2021/04/09 09:58:30;;;;;;;18.83;6.07;;;9.00;99.60;;;;;;5055064;28;20033;-71
2021/04/09 10:00:57;;;;;;;17.08;5.60;;;9.10;99.20;;;;;;5055106;28;20032;-71
2021/04/09 10:03:26;;;;;;;20.75;6.10;;;9.30;98.80;;;;;;5072632;28;20051;-71
2021/04/09 10:06:00;;;;;;;20.00;5.78;;;9.40;98.60;;;;;;5072839;28;20485;-76
2021/04/09 10:08:30;;;;;;;18.23;6.53;;;9.30;98.40;;;;;;5072619;28;20059;-76
2021/04/09 10:10:59;;;;;;;27.35;6.15;;;9.40;98.30;;;;;;5071916;28;20040;-72
2021/04/09 10:13:35;;;;;;;17.10;5.50;;;9.30;98.10;;;;;;5054833;28;22445;-72
2021/04/09 10:16:10;;;;;;;17.80;5.47;;;9.30;97.90;;;;;;5038293;28;20455;-72
2021/04/09 10:18:38;;;;;;;21.30;5.95;;;9.30;97.70;;;;;;5071371;28;20032;-72
2021/04/09 10:21:17;;;;;;;16.88;5.00;;;9.30;97.80;;;;;;5072713;28;20115;-76
2021/04/09 10:23:45;;;;;;;15.13;4.75;;;9.30;97.60;;;;;;5061988;28;20032;-76
2021/04/09 10:26:12;;;;;;;14.70;4.53;;;9.40;97.60;;;;;;5072631;28;20182;-76
2021/04/09 10:28:40;;;;;;;20.20;5.00;;;9.40;97.50;;;;;;5072469;28;20036;-76
2021/04/09 10:31:17;;;;;;;12.40;4.40;;;9.50;97.40;;;;;;5072574;28;20036;-72
2021/04/09 10:33:46;;;;;;;14.57;5.15;;;9.50;97.20;;;;;;5072048;28;20416;-73
2021/04/09 10:36:20;;;;;;;17.23;4.93;;;9.60;97.00;;;;;;5054616;28;20041;-76
2021/04/09 10:38:48;;;;;;;15.90;5.00;;;9.50;96.90;;;;;;5072276;28;20420;-71
2021/04/09 10:41:31;;;;;;;14.75;4.93;;;9.60;97.00;;;;;;5072130;28;20392;-72
2021/04/09 10:44:06;;;;;;;13.65;5.30;;;9.40;96.90;;;;;;5054249;28;20543;-75
2021/04/09 10:46:35;;;;;;;21.92;5.30;;;9.50;97.20;;;;;;5071767;28;20036;-75
2021/04/09 10:49:10;;;;;;;12.88;5.05;;;9.30;97.60;;;;;;5054041;28;20079;-72
2021/04/09 10:51:40;;;;;;;18.58;4.93;;;9.20;98.20;;;;;;5072016;28;20481;-72
2021/04/09 10:54:11;;;;;;;18.58;5.63;;;9.30;98.40;;;;;;5058728;28;20543;-71
2021/04/09 10:56:37;;;;;;;22.35;5.82;;;9.30;98.40;;;;;;5076229;28;20032;-75
2021/04/09 10:59:07;;;;;;;24.60;5.75;;;9.40;98.30;;;;;;5058597;28;20040;-75
2021/04/09 11:01:38;;;;;;;21.13;5.47;;;9.70;98.20;;;;;;5038887;28;20041;-71
2021/04/09 11:04:05;;;;;;;16.02;5.72;;;9.40;97.90;;;;;;5071587;28;20040;-71
2021/04/09 11:06:30;;;;;;;13.05;4.90;;;9.40;97.70;;;;;;5041476;28;20043;-71
2021/04/09 11:09:05;;;;;;;14.60;4.45;;;9.50;97.60;;;;;;5076119;28;20108;-75
2021/04/09 11:11:39;;;;;;;12.93;4.40;;;9.50;97.30;;;;;;5075341;28;20063;-76
2021/04/09 11:14:19;;;;;;;14.43;4.82;;;9.60;97.20;;;;;;5049652;28;20040;-73
2021/04/09 11:17:03;;;;;;;16.42;5.25;;;9.60;97.30;;;;;;5067315;28;20443;-73
2021/04/09 11:19:36;;;;;;;21.77;5.47;;;9.70;97.30;;;;;;5070758;28;20037;-73
2021/04/09 11:22:04;;;;;;;15.43;5.20;;;9.70;97.30;;;;;;5071070;28;20118;-73
2021/04/09 11:24:36;;;;;;;16.60;5.10;;;9.70;97.20;;;;;;5069462;28;20068;-73
2021/04/09 11:27:21;;;;;;;19.80;4.97;;;9.70;97.30;;;;;;5070717;28;20040;-73
2021/04/09 11:29:47;;;;;;;18.13;4.82;;;9.70;97.10;;;;;;5070941;28;20051;-73
2021/04/09 11:32:21;;;;;;;20.38;5.68;;;9.70;97.10;;;;;;5071732;28;20123;-74
2021/04/09 11:34:52;;;;;;;20.05;5.18;;;9.70;97.00;;;;;;5070932;28;20036;-74
2021/04/09 11:37:20;;;;;;;18.33;5.20;;;9.60;97.00;;;;;;5052859;28;20499;-74
2021/04/09 11:39:57;;;;;;;18.00;6.50;;;9.60;97.10;;;;;;5071527;28;20025;-74
2021/04/09 11:42:41;;;;;;;16.17;5.25;;;9.60;97.00;;;;;;5070958;28;20086;-74
2021/04/09 11:45:12;;;;;;;16.02;5.22;;;9.60;96.90;;;;;;5071375;28;20053;-73
2021/04/09 11:47:40;;;;;;;18.02;5.50;;;9.60;97.00;;;;;;5071498;28;20040;-73
2021/04/09 11:50:13;;;;;;;21.42;5.60;;;9.60;97.00;;;;;;5071630;28;20032;-74
2021/04/09 11:53:01;;;;;;;19.95;5.10;;;9.50;96.80;;;;;;5071295;28;20035;-73
2021/04/09 11:55:35;;;;;;;20.92;5.70;;;9.40;96.70;;;;;;5071000;28;20120;-74
2021/04/09 11:58:02;;;;;;;14.23;5.07;;;9.50;96.90;;;;;;5053165;28;20071;-75
2021/04/09 12:00:33;;;;;;;18.00;5.65;;;9.50;96.80;;;;;;5070032;28;20435;-72
2021/04/09 12:03:02;;;;;;;19.73;4.75;;;9.40;96.80;;;;;;5053166;28;20408;-72
2021/04/09 12:05:30;;;;;;;20.45;5.97;;;9.90;96.80;;;;;;5052950;28;20055;-72
2021/04/09 12:07:57;;;;;;;15.45;4.93;;;9.80;96.80;;;;;;5071463;28;20031;-72
2021/04/09 12:10:25;;;;;;;16.00;5.38;;;9.40;96.80;;;;;;5071341;28;20036;-72
2021/04/09 12:12:51;;;;;;;13.25;5.43;;;9.30;96.70;;;;;;5052844;28;20089;-72
2021/04/09 12:15:19;;;;;;;15.00;4.88;;;9.30;96.70;;;;;;5070474;28;20033;-72
2021/04/09 12:17:45;;;;;;;17.95;4.65;;;9.30;96.70;;;;;;5070930;28;20052;-72
2021/04/09 12:20:21;;;;;;;14.15;4.45;;;9.50;96.90;;;;;;5052494;28;20179;-72
2021/04/09 12:22:47;;;;;;;12.80;4.68;;;9.30;96.70;;;;;;5068020;28;20707;-72
2021/04/09 12:25:16;;;;;;;14.00;4.60;;;9.30;96.70;;;;;;5047557;28;20064;-72
2021/04/09 12:27:42;;;;;;;21.05;4.63;;;9.30;96.80;;;;;;5070824;28;20032;-76
2021/04/09 12:30:10;;;;;;;13.93;4.43;;;9.30;96.80;;;;;;5069258;28;20163;-76
2021/04/09 12:32:37;;;;;;;14.48;5.80;;;9.20;96.80;;;;;;5056740;28;20044;-77
2021/04/09 12:35:04;;;;;;;11.95;4.80;;;9.20;97.10;;;;;;5070543;28;20134;-76
2021/04/09 12:37:30;;;;;;;17.70;5.47;;;9.10;97.30;;;;;;5050884;28;20056;-76
2021/04/09 12:39:56;;;;;;;16.85;5.43;;;9.00;97.60;;;;;;5069849;28;20086;-72
2021/04/09 12:42:23;;;;;;;15.75;4.13;;;9.00;98.00;;;;;;5034072;28;20190;-76
2021/04/09 12:44:52;;;;;;;16.90;4.78;;;8.90;98.20;;;;;;5069737;28;20037;-76
2021/04/09 12:47:18;;;;;;;17.23;5.15;;;8.90;98.30;;;;;;5067222;28;20071;-76
2021/04/09 12:49:47;;;;;;;21.67;5.18;;;8.80;98.60;;;;;;5068986;28;20032;-71
2021/04/09 12:52:14;;;;;;;19.42;3.58;;;8.70;99.10;;;;;;5064840;28;20045;-71
2021/04/09 12:54:40;;;;;;;23.08;4.55;;;8.60;98.70;;;;;;5066884;28;20043;-72